Prescott, Wisconsin
Current Conditions -  °F | °C
As of 12:10 PM on Sunday 25 Jan 2015 (Local Time) from KSGS Reporting Station
Overcast Overcast  
Wind Chill: 23°   Ceiling: 2100
Heat Index: 23°   Visibility: 10mi
Dew Point: 13°   Wind: 3mph
Humidity: 65%   Direction: 40°NE
Pressure: 30.03"   Gusts: NA
Location:  44.75°N, 92.8°W
Report Text: KSGS 251810Z AUTO 04003KT 10SM OVC021 M05/M11 A3003 RMK AO2 T10501107
Loading
Personal Weather Stations






























Interactive Weather Map New forecast layout! Learn more

10-Day Weather Forecast

Advertisements
Track Severe Weather on mobile